createdAt,value
2018-06-22T00:01:15.386Z,1.20
2018-06-22T00:03:52.250Z,0.80
2018-06-22T00:06:28.941Z,1.07
2018-06-22T00:09:07.196Z,1.10
2018-06-22T00:11:43.453Z,1.45
2018-06-22T00:14:20.840Z,1.02
2018-06-22T00:16:58.333Z,0.82
2018-06-22T00:19:35.013Z,0.95
2018-06-22T00:22:11.806Z,1.17
2018-06-22T00:24:48.613Z,1.07
2018-06-22T00:27:26.490Z,1.05
2018-06-22T00:30:04.704Z,1.50
2018-06-22T00:32:41.013Z,1.02
2018-06-22T00:35:17.517Z,1.20
2018-06-22T00:37:55.037Z,1.00
2018-06-22T00:40:31.426Z,1.10
2018-06-22T00:43:09.592Z,1.20
2018-06-22T00:45:45.411Z,1.40
2018-06-22T00:48:21.487Z,1.32
2018-06-22T00:50:58.397Z,1.10
2018-06-22T00:53:55.404Z,1.40
2018-06-22T00:56:31.981Z,1.20
2018-06-22T00:59:09.468Z,1.00
2018-06-22T01:01:45.756Z,1.20
2018-06-22T01:04:24.449Z,1.20
2018-06-22T01:07:01.137Z,1.10
2018-06-22T01:09:37.632Z,0.95
2018-06-22T01:12:14.773Z,1.00
2018-06-22T01:14:51.697Z,1.10
2018-06-22T01:17:27.320Z,1.20
2018-06-22T01:20:05.630Z,1.22
2018-06-22T01:22:43.645Z,1.47
2018-06-22T01:25:20.124Z,1.17
2018-06-22T01:27:56.374Z,1.00
2018-06-22T01:30:32.170Z,1.07
2018-06-22T01:33:08.340Z,0.90
2018-06-22T01:35:45.161Z,1.10
2018-06-22T01:38:21.649Z,1.30
2018-06-22T01:40:58.814Z,1.02
2018-06-22T01:43:36.212Z,1.35
2018-06-22T01:46:14.389Z,0.93
2018-06-22T01:48:52.449Z,0.90
2018-06-22T01:51:28.997Z,1.25
2018-06-22T01:54:05.308Z,1.25
2018-06-22T01:56:43.292Z,1.45
2018-06-22T01:59:19.842Z,1.30
2018-06-22T02:01:57.881Z,1.12
2018-06-22T02:04:34.819Z,1.20
2018-06-22T02:07:11.036Z,1.00
2018-06-22T02:09:47.245Z,1.22
2018-06-22T02:12:25.470Z,1.05
2018-06-22T02:15:04.294Z,1.07
2018-06-22T02:17:40.273Z,0.90
2018-06-22T02:20:17.621Z,1.25
2018-06-22T02:22:55.103Z,1.00
2018-06-22T02:25:34.001Z,1.10
2018-06-22T02:28:11.776Z,1.10
2018-06-22T02:30:49.689Z,0.98
2018-06-22T02:33:27.399Z,1.00
2018-06-22T02:36:05.688Z,1.00
2018-06-22T02:38:43.202Z,1.12
2018-06-22T02:41:20.281Z,1.07
2018-06-22T02:43:57.717Z,0.80
2018-06-22T02:46:36.024Z,0.90
2018-06-22T02:49:13.658Z,0.90
2018-06-22T02:51:50.728Z,1.10
2018-06-22T02:54:28.534Z,0.95
2018-06-22T02:57:04.860Z,1.07
2018-06-22T02:59:42.687Z,1.27
2018-06-22T03:02:19.640Z,0.88
2018-06-22T03:04:56.244Z,1.00
2018-06-22T03:07:32.822Z,1.20
2018-06-22T03:10:09.807Z,0.98
2018-06-22T03:12:47.581Z,1.20
2018-06-22T03:15:24.563Z,1.10
2018-06-22T03:18:02.782Z,1.30
2018-06-22T03:20:40.007Z,1.50
2018-06-22T03:23:16.509Z,1.40
2018-06-22T03:25:54.429Z,1.10
2018-06-22T03:28:32.837Z,1.12
2018-06-22T03:31:11.851Z,1.52
2018-06-22T03:33:50.152Z,1.10
2018-06-22T03:36:26.273Z,1.20
2018-06-22T03:39:03.604Z,1.35
2018-06-22T03:41:41.100Z,1.50
2018-06-22T03:44:17.316Z,1.22
2018-06-22T03:46:54.662Z,1.35
2018-06-22T03:49:31.421Z,1.40
2018-06-22T03:52:09.263Z,1.20
2018-06-22T03:54:47.212Z,1.45
2018-06-22T03:57:23.913Z,1.30
2018-06-22T04:00:02.756Z,1.00
2018-06-22T04:02:39.416Z,1.00
2018-06-22T04:05:16.451Z,1.07
2018-06-22T04:07:53.540Z,1.07
2018-06-22T04:10:29.834Z,1.40
2018-06-22T04:13:06.206Z,1.22
2018-06-22T04:15:43.150Z,1.20
2018-06-22T04:18:20.349Z,1.32
2018-06-22T04:20:58.626Z,1.35
2018-06-22T04:23:35.962Z,1.50
2018-06-22T04:26:12.290Z,1.27
2018-06-22T04:28:48.797Z,1.02
2018-06-22T04:31:25.454Z,1.25
2018-06-22T04:34:03.760Z,1.50
2018-06-22T04:36:39.925Z,1.52
2018-06-22T04:39:17.241Z,1.00
2018-06-22T04:41:54.217Z,1.52
2018-06-22T04:44:31.109Z,1.67
2018-06-22T04:47:08.541Z,1.25
2018-06-22T04:49:45.134Z,1.50
2018-06-22T04:52:22.372Z,1.62
2018-06-22T04:54:59.012Z,1.70
2018-06-22T04:57:35.705Z,1.52
2018-06-22T05:00:12.473Z,1.52
2018-06-22T05:02:50.665Z,1.32
2018-06-22T05:05:28.632Z,1.55
2018-06-22T05:08:06.734Z,1.60
2018-06-22T05:10:44.557Z,1.30
2018-06-22T05:13:21.872Z,1.95
2018-06-22T05:16:00.015Z,1.62
2018-06-22T05:18:36.997Z,1.62
2018-06-22T05:21:14.069Z,1.40
2018-06-22T05:23:51.837Z,2.33
2018-06-22T05:26:29.021Z,1.30
2018-06-22T05:29:05.028Z,1.75
2018-06-22T05:31:42.310Z,1.35
2018-06-22T05:34:18.941Z,1.47
2018-06-22T05:36:55.647Z,1.65
2018-06-22T05:39:32.605Z,1.40
2018-06-22T05:42:10.214Z,1.40
2018-06-22T05:44:46.889Z,1.72
2018-06-22T05:47:23.462Z,1.70
2018-06-22T05:50:00.036Z,1.35
2018-06-22T05:52:36.271Z,1.57
2018-06-22T05:55:13.887Z,1.50
2018-06-22T05:57:50.789Z,1.45
2018-06-22T06:00:29.402Z,1.75
2018-06-22T06:03:06.911Z,1.60
2018-06-22T06:05:43.633Z,1.65
2018-06-22T06:08:21.503Z,1.40
2018-06-22T06:10:58.036Z,1.25
2018-06-22T06:13:34.813Z,1.40
2018-06-22T06:16:11.218Z,1.72
2018-06-22T06:18:49.317Z,1.20
2018-06-22T06:21:27.041Z,1.60
2018-06-22T06:24:03.960Z,1.10
2018-06-22T06:26:41.541Z,1.45
2018-06-22T06:29:18.927Z,1.40
2018-06-22T06:31:56.256Z,1.25
2018-06-22T06:34:34.277Z,1.32
2018-06-22T06:37:11.866Z,1.40
2018-06-22T06:39:49.937Z,1.62
2018-06-22T06:42:26.381Z,1.45
2018-06-22T06:45:03.050Z,1.17
2018-06-22T06:47:39.260Z,1.72
2018-06-22T06:50:17.578Z,1.45
2018-06-22T06:52:54.399Z,1.17
2018-06-22T06:55:31.520Z,1.40
2018-06-22T06:58:08.384Z,1.20
2018-06-22T07:00:46.426Z,1.50
2018-06-22T07:03:23.553Z,1.00
2018-06-22T07:06:00.250Z,1.20
2018-06-22T07:08:37.432Z,1.27
2018-06-22T07:11:14.833Z,1.10
2018-06-22T07:13:52.592Z,1.57
2018-06-22T07:16:30.099Z,1.47
2018-06-22T07:19:06.330Z,1.30
2018-06-22T07:21:43.429Z,1.10
2018-06-22T07:24:20.949Z,1.13
2018-06-22T07:26:58.862Z,1.07
2018-06-22T07:29:36.193Z,1.37
2018-06-22T07:32:13.836Z,1.13
2018-06-22T07:34:52.085Z,1.37
2018-06-22T07:37:29.448Z,1.30
2018-06-22T07:40:05.845Z,1.17
2018-06-22T07:42:42.882Z,0.90
2018-06-22T07:45:20.065Z,0.87
2018-06-22T07:47:57.529Z,1.10
2018-06-22T07:50:34.024Z,1.50
2018-06-22T07:53:10.030Z,1.07
2018-06-22T07:55:47.781Z,1.40
2018-06-22T07:58:24.141Z,1.33
2018-06-22T08:01:02.704Z,1.50
2018-06-22T08:03:39.016Z,1.40
2018-06-22T08:06:17.296Z,1.20
2018-06-22T08:08:54.262Z,1.43
2018-06-22T08:11:31.510Z,1.30
2018-06-22T08:14:07.987Z,1.47
2018-06-22T08:16:45.646Z,1.40
2018-06-22T08:19:22.736Z,1.40
2018-06-22T08:21:59.017Z,1.57
2018-06-22T08:24:35.347Z,2.10
2018-06-22T08:27:12.020Z,1.57
2018-06-22T08:29:49.489Z,1.60
2018-06-22T08:32:25.774Z,1.20
2018-06-22T08:35:02.558Z,1.03
2018-06-22T08:37:39.893Z,1.70
2018-06-22T08:40:17.341Z,1.53
2018-06-22T08:42:53.602Z,1.33
2018-06-22T08:45:31.061Z,1.63
2018-06-22T08:48:08.116Z,1.30
2018-06-22T08:50:46.341Z,1.27
2018-06-22T08:53:24.196Z,1.47
2018-06-22T08:56:01.414Z,1.20
2018-06-22T08:58:38.131Z,1.67
2018-06-22T09:01:16.168Z,1.63
2018-06-22T09:03:54.166Z,1.67
2018-06-22T09:06:31.351Z,1.70
2018-06-22T09:09:09.390Z,1.30
2018-06-22T09:11:46.581Z,1.57
2018-06-22T09:14:23.683Z,1.30
2018-06-22T09:17:01.014Z,1.30
2018-06-22T09:19:40.028Z,1.40
2018-06-22T09:22:17.820Z,1.37
2018-06-22T09:24:55.441Z,1.13
2018-06-22T09:27:33.650Z,1.87
2018-06-22T09:30:11.620Z,1.17
2018-06-22T09:32:49.313Z,1.40
2018-06-22T09:35:27.437Z,1.70
2018-06-22T09:38:04.524Z,1.40
2018-06-22T09:40:41.001Z,1.67
2018-06-22T09:43:18.372Z,1.20
2018-06-22T09:45:55.837Z,1.23
2018-06-22T09:48:33.886Z,1.00
2018-06-22T09:51:10.952Z,1.23
2018-06-22T09:53:48.770Z,1.53
2018-06-22T09:56:25.373Z,1.23
2018-06-22T09:59:02.330Z,1.40
2018-06-22T10:01:38.411Z,1.70
2018-06-22T10:04:15.598Z,1.13
2018-06-22T10:06:51.890Z,1.07
2018-06-22T10:09:29.146Z,1.40
2018-06-22T10:12:06.698Z,1.10
2018-06-22T10:14:43.484Z,1.20
2018-06-22T10:17:20.090Z,1.13
2018-06-22T10:19:56.257Z,1.20
2018-06-22T10:22:34.683Z,1.13
2018-06-22T10:25:12.925Z,1.40
2018-06-22T10:27:50.268Z,1.30
2018-06-22T10:30:28.181Z,1.50
2018-06-22T10:33:06.433Z,1.40
2018-06-22T10:35:44.431Z,1.07
2018-06-22T10:38:21.890Z,1.20
2018-06-22T10:40:59.060Z,1.00
2018-06-22T10:43:36.032Z,0.93
2018-06-22T10:46:13.881Z,1.10
2018-06-22T10:48:50.253Z,1.43
2018-06-22T10:51:26.923Z,1.23
2018-06-22T10:54:04.414Z,1.07
2018-06-22T10:56:42.542Z,1.40
2018-06-22T10:59:20.669Z,1.10
2018-06-22T11:01:59.266Z,1.53
2018-06-22T11:04:36.829Z,1.30
2018-06-22T11:07:14.346Z,1.10
2018-06-22T11:09:52.368Z,1.00
2018-06-22T11:12:29.795Z,0.93
2018-06-22T11:15:06.197Z,1.10
2018-06-22T11:17:42.748Z,0.90
2018-06-22T11:20:20.508Z,0.97
2018-06-22T11:22:58.752Z,1.10
2018-06-22T11:25:35.720Z,1.17
2018-06-22T11:28:13.999Z,1.37
2018-06-22T11:30:51.303Z,1.03
2018-06-22T11:33:29.197Z,1.07
2018-06-22T11:36:07.155Z,1.10
2018-06-22T11:38:44.738Z,1.17
2018-06-22T11:41:27.785Z,1.17
2018-06-22T11:44:07.034Z,1.00
2018-06-22T11:46:44.436Z,0.97
2018-06-22T11:49:21.398Z,0.77
2018-06-22T11:51:57.923Z,0.70
2018-06-22T11:54:33.624Z,0.90
2018-06-22T11:57:11.821Z,0.83
2018-06-22T11:59:49.315Z,0.87
2018-06-22T12:02:27.185Z,0.87
2018-06-22T12:05:04.593Z,0.73
2018-06-22T12:07:41.183Z,0.80
2018-06-22T12:10:18.280Z,0.60
2018-06-22T12:12:56.610Z,0.67
2018-06-22T12:15:33.664Z,0.67
2018-06-22T12:18:10.659Z,0.70
2018-06-22T12:20:48.336Z,0.80
2018-06-22T12:23:26.139Z,0.80
2018-06-22T12:26:04.607Z,0.73
2018-06-22T12:28:41.871Z,0.90
2018-06-22T12:31:20.409Z,0.80
2018-06-22T12:33:58.646Z,0.97
2018-06-22T12:36:36.677Z,1.23
2018-06-22T12:39:14.514Z,1.50
2018-06-22T12:41:50.968Z,1.30
2018-06-22T12:44:28.689Z,1.40
2018-06-22T12:47:05.413Z,1.73
2018-06-22T12:49:42.446Z,1.80
2018-06-22T12:52:20.836Z,1.63
2018-06-22T12:54:57.310Z,1.80
2018-06-22T12:57:34.582Z,1.90
2018-06-22T13:00:12.867Z,1.97
2018-06-22T13:02:50.392Z,1.90
2018-06-22T13:05:26.384Z,1.73
2018-06-22T13:08:03.131Z,1.90
2018-06-22T13:10:40.991Z,2.00
2018-06-22T13:13:18.597Z,1.70
2018-06-22T13:15:56.010Z,1.47
2018-06-22T13:18:35.938Z,1.20
2018-06-22T13:21:13.009Z,1.00
2018-06-22T13:23:51.698Z,1.60
2018-06-22T13:26:29.103Z,1.60
2018-06-22T13:29:06.312Z,1.40
2018-06-22T13:31:45.941Z,1.70
2018-06-22T13:34:25.756Z,1.47
2018-06-22T13:37:06.478Z,1.70
2018-06-22T13:39:45.755Z,2.00
2018-06-22T13:42:26.036Z,1.80
2018-06-22T13:45:03.642Z,1.60
2018-06-22T13:47:40.396Z,2.00
2018-06-22T13:50:16.767Z,1.60
2018-06-22T13:52:54.614Z,1.50
2018-06-22T13:55:32.223Z,1.53
2018-06-22T13:58:08.233Z,1.30
2018-06-22T14:00:46.130Z,1.30
2018-06-22T14:03:23.642Z,1.30
2018-06-22T14:06:07.370Z,1.10
2018-06-22T14:08:43.815Z,1.27
2018-06-22T14:11:21.236Z,1.30
2018-06-22T14:13:57.935Z,1.20
2018-06-22T14:16:35.396Z,1.10
2018-06-22T14:19:13.184Z,1.00
2018-06-22T14:21:51.174Z,0.80
2018-06-22T14:24:28.093Z,1.20
2018-06-22T14:27:06.035Z,1.20
2018-06-22T14:29:42.956Z,0.90
2018-06-22T14:32:20.461Z,1.00
2018-06-22T14:34:58.477Z,1.20
2018-06-22T14:37:37.882Z,1.10
2018-06-22T14:40:16.753Z,1.00
2018-06-22T14:42:54.238Z,0.80
2018-06-22T14:45:32.266Z,1.00
2018-06-22T14:48:09.829Z,0.80
2018-06-22T14:50:49.228Z,1.00
2018-06-22T14:53:33.012Z,0.77
2018-06-22T14:56:16.893Z,0.90
2018-06-22T14:59:00.582Z,0.90
2018-06-22T15:01:42.766Z,0.90
2018-06-22T15:04:25.080Z,1.00
2018-06-22T15:07:07.108Z,1.00
2018-06-22T15:09:45.599Z,1.00
2018-06-22T15:12:22.783Z,0.77
2018-06-22T15:15:00.514Z,0.93
2018-06-22T15:17:41.734Z,1.40
2018-06-22T15:20:21.419Z,1.00
2018-06-22T15:22:58.933Z,1.10
2018-06-22T15:25:36.310Z,1.10
2018-06-22T15:28:13.210Z,1.47
2018-06-22T15:30:50.586Z,1.37
2018-06-22T15:33:33.533Z,1.20
2018-06-22T15:36:18.301Z,0.80
2018-06-22T15:39:00.078Z,1.10
2018-06-22T15:41:41.882Z,1.20
2018-06-22T15:44:24.704Z,1.10
2018-06-22T15:47:07.456Z,1.33
2018-06-22T15:49:49.219Z,0.90
2018-06-22T15:52:32.692Z,0.83
2018-06-22T15:55:11.608Z,0.83
2018-06-22T15:57:49.415Z,1.03
2018-06-22T16:00:26.263Z,0.80
2018-06-22T16:03:10.027Z,0.80
2018-06-22T16:05:47.769Z,0.80
2018-06-22T16:08:26.001Z,0.83
2018-06-22T16:11:03.102Z,0.80
2018-06-22T16:13:45.897Z,0.73
2018-06-22T16:16:28.971Z,0.70
2018-06-22T16:19:12.761Z,0.90
2018-06-22T16:21:55.700Z,0.90
2018-06-22T16:26:47.696Z,1.70
2018-06-22T16:29:24.815Z,1.00
2018-06-22T16:32:04.350Z,1.40
2018-06-22T16:34:43.820Z,1.20
2018-06-22T16:37:22.448Z,1.40
2018-06-22T16:39:59.614Z,1.33
2018-06-22T16:42:37.352Z,1.90
2018-06-22T16:45:14.066Z,1.10
2018-06-22T16:47:53.419Z,1.23
2018-06-22T16:50:30.631Z,1.50
2018-06-22T16:53:08.598Z,1.50
2018-06-22T16:55:45.846Z,1.57
2018-06-22T16:58:29.214Z,1.30
2018-06-22T17:01:10.041Z,1.50
2018-06-22T17:03:47.482Z,2.07
2018-06-22T17:06:26.021Z,1.87
2018-06-22T17:09:08.734Z,1.40
2018-06-22T17:11:54.135Z,1.40
2018-06-22T17:14:37.147Z,1.70
2018-06-22T17:17:21.062Z,1.43
2018-06-22T17:19:58.249Z,1.70
2018-06-22T17:22:36.013Z,1.70
2018-06-22T17:25:13.304Z,1.80
2018-06-22T17:27:50.880Z,2.13
2018-06-22T17:30:29.269Z,1.50
2018-06-22T17:33:07.654Z,2.05
2018-06-22T17:35:44.922Z,1.60
2018-06-22T17:38:21.309Z,1.60
2018-06-22T17:41:00.653Z,1.55
2018-06-22T17:43:40.590Z,1.27
2018-06-22T17:46:18.666Z,1.80
2018-06-22T17:48:56.424Z,1.10
2018-06-22T17:51:35.809Z,1.20
2018-06-22T17:54:12.510Z,2.60
2018-06-22T17:56:49.389Z,3.63
2018-06-22T17:59:33.423Z,2.42
2018-06-22T18:02:15.307Z,1.77
2018-06-22T18:05:57.753Z,1.40
2018-06-22T18:08:39.791Z,1.40
2018-06-22T18:11:22.882Z,1.57
2018-06-22T18:13:59.842Z,1.80
2018-06-22T18:16:36.295Z,2.27
2018-06-22T18:19:12.918Z,3.50
2018-06-22T18:21:51.524Z,2.30
2018-06-22T18:24:28.086Z,2.50
2018-06-22T18:27:06.310Z,1.90
2018-06-22T18:29:43.291Z,2.50
2018-06-22T18:32:21.733Z,1.47
2018-06-22T18:35:00.110Z,1.60
2018-06-22T18:37:38.033Z,1.90
2018-06-22T18:40:16.545Z,1.70
2018-06-22T18:42:53.475Z,1.47
2018-06-22T18:45:30.197Z,1.25
2018-06-22T18:48:07.673Z,1.67
2018-06-22T18:50:44.413Z,1.50
2018-06-22T18:53:26.737Z,1.50
2018-06-22T18:56:09.110Z,2.10
2018-06-22T18:58:50.521Z,1.65
2018-06-22T19:01:33.105Z,1.57
2018-06-22T19:04:09.992Z,2.45
2018-06-22T19:06:46.541Z,2.47
2018-06-22T19:09:23.261Z,1.85
2018-06-22T19:12:01.467Z,1.85
2018-06-22T19:14:38.443Z,1.70
2018-06-22T19:17:15.885Z,1.52
2018-06-22T19:19:52.647Z,1.75
2018-06-22T19:22:30.532Z,2.10
2018-06-22T19:25:08.230Z,1.60
2018-06-22T19:27:45.781Z,1.60
2018-06-22T19:30:21.869Z,2.17
2018-06-22T19:33:00.312Z,2.02
2018-06-22T19:35:38.381Z,2.20
2018-06-22T19:38:15.916Z,1.80
2018-06-22T19:40:53.190Z,1.90
2018-06-22T19:43:35.383Z,1.65
2018-06-22T19:46:17.246Z,2.10
2018-06-22T19:49:00.974Z,1.60
2018-06-22T19:51:43.077Z,2.20
2018-06-22T19:54:20.818Z,1.60
2018-06-22T19:56:59.082Z,2.17
2018-06-22T19:59:38.161Z,1.95
2018-06-22T20:02:15.439Z,1.62
2018-06-22T20:04:52.143Z,1.70
2018-06-22T20:07:30.453Z,1.82
2018-06-22T20:10:08.042Z,2.15
2018-06-22T20:12:45.711Z,1.80
2018-06-22T20:15:24.850Z,2.02
2018-06-22T20:18:01.193Z,1.90
2018-06-22T20:20:40.197Z,2.33
2018-06-22T20:23:17.385Z,2.17
2018-06-22T20:25:55.354Z,2.15
2018-06-22T20:28:33.104Z,2.00
2018-06-22T20:31:14.744Z,2.00
2018-06-22T20:33:52.350Z,2.25
2018-06-22T20:36:35.028Z,2.27
2018-06-22T20:39:17.552Z,2.00
2018-06-22T20:42:00.249Z,4.37
2018-06-22T20:44:44.296Z,2.40
2018-06-22T20:47:27.083Z,2.67
2018-06-22T20:50:11.009Z,1.95
2018-06-22T20:52:48.367Z,2.20
2018-06-22T20:55:25.984Z,2.05
2018-06-22T20:58:04.340Z,2.98
2018-06-22T21:00:43.283Z,2.30
2018-06-22T21:03:19.657Z,2.27
2018-06-22T21:05:59.006Z,2.12
2018-06-22T21:08:35.482Z,2.60
2018-06-22T21:11:12.621Z,3.33
2018-06-22T21:13:50.452Z,2.27
2018-06-22T21:16:26.983Z,2.30
2018-06-22T21:19:04.419Z,2.60
2018-06-22T21:21:46.589Z,2.83
2018-06-22T21:24:23.292Z,2.62
2018-06-22T21:27:06.502Z,3.25
2018-06-22T21:29:49.194Z,2.30
2018-06-22T21:32:32.765Z,3.00
2018-06-22T21:35:15.994Z,2.90
2018-06-22T21:37:59.528Z,2.58
2018-06-22T21:40:37.494Z,2.52
2018-06-22T21:43:14.906Z,2.77
2018-06-22T21:45:53.446Z,2.72
2018-06-22T21:48:30.532Z,2.70
2018-06-22T21:51:08.013Z,2.47
2018-06-22T21:53:44.183Z,2.40
2018-06-22T21:56:20.872Z,3.17
2018-06-22T21:58:58.260Z,2.58
2018-06-22T22:01:35.321Z,2.52
2018-06-22T22:04:12.671Z,3.27
2018-06-22T22:06:50.720Z,2.58
2018-06-22T22:09:32.782Z,2.87
2018-06-22T22:12:10.020Z,2.80
2018-06-22T22:14:46.958Z,3.00
2018-06-22T22:17:23.307Z,3.20
2018-06-22T22:20:00.100Z,2.80
2018-06-22T22:22:37.925Z,3.67
2018-06-22T22:25:16.187Z,3.02
2018-06-22T22:27:53.075Z,3.35
2018-06-22T22:30:30.392Z,2.80
2018-06-22T22:33:07.031Z,3.20
2018-06-22T22:35:43.501Z,2.92
2018-06-22T22:38:21.331Z,2.90
2018-06-22T22:40:59.509Z,3.22
2018-06-22T22:43:36.446Z,3.22
2018-06-22T22:46:13.463Z,2.98
2018-06-22T22:48:50.007Z,3.08
2018-06-22T22:51:28.973Z,3.33
2018-06-22T22:54:06.093Z,3.35
2018-06-22T22:56:43.561Z,3.70
2018-06-22T22:59:20.250Z,3.58
2018-06-22T23:01:57.218Z,3.40
2018-06-22T23:04:35.374Z,3.33
2018-06-22T23:07:12.780Z,3.70
2018-06-22T23:09:52.468Z,3.20
2018-06-22T23:12:32.127Z,3.65
2018-06-22T23:15:09.338Z,3.50
2018-06-22T23:17:45.776Z,3.67
2018-06-22T23:20:22.511Z,3.25
2018-06-22T23:23:18.333Z,2.92
2018-06-22T23:25:55.393Z,3.08
2018-06-22T23:28:31.696Z,3.02
2018-06-22T23:31:10.381Z,2.92
2018-06-22T23:33:48.331Z,3.33
2018-06-22T23:36:26.012Z,3.40
2018-06-22T23:39:03.101Z,3.45
2018-06-22T23:41:40.039Z,2.85
2018-06-22T23:44:17.438Z,2.98
2018-06-22T23:46:54.728Z,2.92
2018-06-22T23:49:32.562Z,3.12
2018-06-22T23:52:09.813Z,3.17
2018-06-22T23:54:47.301Z,3.37
2018-06-22T23:57:24.377Z,3.67
